Time;durP1;ratioP1;P1;durP2;ratioP2;P2;SDS_P1;SDS_P2;PMS_P1;PMS_P2;Temp;Humidity;BMP_temperature;BMP_pressure;BME280_temperature;BME280_humidity;BME280_pressure;Samples;Min_cycle;Max_cycle;Signal;HPM_P1;HPM_P2
2022/07/06 00:01:27;;;;;;;5.60;2.50;;;;;;;16.43;100.00;96779.84;5079904;28;20557;-52
2022/07/06 00:03:55;;;;;;;5.28;2.50;;;;;;;16.43;100.00;96785.97;5079849;28;20071;-47
2022/07/06 00:06:24;;;;;;;7.10;2.58;;;;;;;16.53;100.00;96788.44;5074270;28;20063;-47
2022/07/06 00:08:52;;;;;;;5.47;2.63;;;;;;;16.53;100.00;96781.28;5079934;28;20850;-46
2022/07/06 00:11:22;;;;;;;2.95;2.40;;;;;;;16.50;100.00;96778.97;5077905;28;20074;-49
2022/07/06 00:13:51;;;;;;;7.68;2.70;;;;;;;16.51;100.00;96777.94;5076238;28;20532;-47
2022/07/06 00:16:20;;;;;;;3.33;2.40;;;;;;;16.58;100.00;96778.09;5081003;28;20094;-49
2022/07/06 00:18:48;;;;;;;6.93;2.80;;;;;;;16.53;100.00;96780.44;5077557;28;20146;-48
2022/07/06 00:21:17;;;;;;;4.03;2.80;;;;;;;16.58;100.00;96775.41;5077832;28;20060;-49
2022/07/06 00:23:45;;;;;;;2.55;2.35;;;;;;;16.51;100.00;96780.59;5078981;28;20063;-50
2022/07/06 00:26:14;;;;;;;3.15;2.42;;;;;;;16.58;100.00;96781.56;5078203;28;20064;-48
2022/07/06 00:28:44;;;;;;;6.20;2.70;;;;;;;16.59;100.00;96779.75;5076151;28;20174;-54
2022/07/06 00:31:12;;;;;;;3.13;2.47;;;;;;;16.54;100.00;96785.59;5081558;28;20340;-51
2022/07/06 00:33:41;;;;;;;4.57;2.60;;;;;;;16.65;100.00;96786.19;5078949;28;20071;-45
2022/07/06 00:36:09;;;;;;;5.10;2.72;;;;;;;16.48;100.00;96786.31;5084298;28;20158;-46
2022/07/06 00:38:38;;;;;;;3.13;2.75;;;;;;;16.51;100.00;96787.78;5080449;28;20060;-44
2022/07/06 00:41:06;;;;;;;3.50;2.58;;;;;;;16.55;100.00;96789.06;5079633;28;20059;-44
2022/07/06 00:43:49;;;;;;;3.35;2.80;;;;;;;16.41;100.00;96784.47;5074925;28;20069;-45
2022/07/06 00:46:18;;;;;;;10.63;2.95;;;;;;;16.31;100.00;96784.69;5082925;28;20075;-45
2022/07/06 00:48:47;;;;;;;3.95;2.85;;;;;;;16.29;100.00;96786.72;5081438;28;20454;-50
2022/07/06 00:51:16;;;;;;;4.60;2.95;;;;;;;16.13;100.00;96790.25;5083755;28;20071;-48
2022/07/06 00:53:45;;;;;;;4.78;2.88;;;;;;;16.11;100.00;96784.28;5080629;28;20064;-51
2022/07/06 00:56:14;;;;;;;4.90;3.42;;;;;;;16.22;100.00;96778.59;5080525;28;20082;-50
2022/07/06 00:58:42;;;;;;;6.22;3.00;;;;;;;16.24;100.00;96781.91;5082701;28;20074;-49
2022/07/06 01:01:12;;;;;;;4.53;2.90;;;;;;;16.31;100.00;96777.56;5074663;28;20079;-48
2022/07/06 01:03:41;;;;;;;5.50;2.90;;;;;;;16.26;100.00;96773.75;5083351;28;20071;-51
2022/07/06 01:06:09;;;;;;;7.20;2.78;;;;;;;16.27;100.00;96772.72;5078821;28;20059;-45
2022/07/06 01:08:39;;;;;;;4.35;2.90;;;;;;;16.20;100.00;96769.94;5079541;28;20276;-47
2022/07/06 01:11:07;;;;;;;4.85;3.05;;;;;;;16.33;100.00;96772.88;5078570;28;20067;-45
2022/07/06 01:13:36;;;;;;;6.93;2.78;;;;;;;16.37;100.00;96776.00;5082738;28;20063;-46
2022/07/06 01:16:05;;;;;;;8.27;2.88;;;;;;;16.38;100.00;96775.88;5082474;28;20067;-51
2022/07/06 01:18:34;;;;;;;4.13;2.65;;;;;;;16.45;100.00;96773.34;5078652;28;20056;-48
2022/07/06 01:21:12;;;;;;;5.22;2.97;;;;;;;16.45;100.00;96773.34;5076861;28;20060;-50
2022/07/06 01:23:43;;;;;;;4.45;2.72;;;;;;;16.44;100.00;96773.50;5078369;28;20064;-48
2022/07/06 01:26:13;;;;;;;4.72;2.80;;;;;;;16.48;100.00;96772.13;5077428;28;20060;-48
2022/07/06 01:28:42;;;;;;;5.00;2.83;;;;;;;16.35;100.00;96773.53;5077240;28;20091;-51
2022/07/06 01:31:19;;;;;;;8.80;2.83;;;;;;;16.44;100.00;96765.50;5080432;28;20285;-46
2022/07/06 01:33:49;;;;;;;5.47;2.90;;;;;;;16.39;100.00;96763.38;5079673;28;20068;-49
2022/07/06 01:36:19;;;;;;;4.70;3.35;;;;;;;16.31;100.00;96766.91;5080447;28;20082;-51
2022/07/06 01:38:49;;;;;;;5.75;3.17;;;;;;;16.22;100.00;96765.28;5079505;28;20074;-51
2022/07/06 01:41:17;;;;;;;4.35;2.90;;;;;;;16.21;100.00;96768.94;5079549;28;20064;-45
2022/07/06 01:43:46;;;;;;;5.20;3.03;;;;;;;16.25;100.00;96770.25;5081693;28;20064;-44
2022/07/06 01:46:15;;;;;;;5.63;3.20;;;;;;;16.20;100.00;96764.59;5080732;28;20078;-45
2022/07/06 01:48:43;;;;;;;3.97;2.80;;;;;;;16.09;100.00;96770.31;5079378;28;20051;-44
2022/07/06 01:51:12;;;;;;;5.05;3.08;;;;;;;15.98;100.00;96778.66;5079154;28;20056;-45
2022/07/06 01:53:42;;;;;;;7.82;2.80;;;;;;;15.96;100.00;96775.34;5082743;28;20055;-45
2022/07/06 01:56:11;;;;;;;5.68;3.22;;;;;;;15.79;100.00;96782.50;5076062;28;20072;-52
2022/07/06 01:58:40;;;;;;;2.97;2.70;;;;;;;15.76;100.00;96782.84;5079823;28;20092;-45
2022/07/06 02:01:09;;;;;;;5.25;2.95;;;;;;;15.73;100.00;96784.03;5073904;28;21331;-44
2022/07/06 02:03:38;;;;;;;4.60;3.00;;;;;;;15.64;100.00;96790.31;5080219;28;20451;-45
2022/07/06 02:06:07;;;;;;;5.47;2.95;;;;;;;15.56;100.00;96791.16;5075921;28;20060;-45
2022/07/06 02:08:37;;;;;;;5.07;3.13;;;;;;;15.46;100.00;96787.84;5072779;28;20086;-51
2022/07/06 02:11:07;;;;;;;4.93;3.13;;;;;;;15.47;100.00;96786.84;5073670;28;20505;-53
2022/07/06 02:13:36;;;;;;;;;;;;;;;15.46;100.00;96787.03;5074083;28;20088;-48
2022/07/06 02:16:04;;;;;;;3.78;3.15;;;;;;;15.40;100.00;96781.38;5078729;28;20354;-49
2022/07/06 02:18:33;;;;;;;4.05;2.95;;;;;;;15.53;100.00;96782.69;5081985;28;20466;-45
2022/07/06 02:21:02;;;;;;;3.67;3.25;;;;;;;15.51;100.00;96790.00;5074507;28;20067;-45
2022/07/06 02:23:30;;;;;;;5.72;3.55;;;;;;;15.50;100.00;96797.16;5072993;28;20343;-49
2022/07/06 02:25:58;;;;;;;5.07;3.05;;;;;;;15.46;100.00;96803.81;5072972;28;20525;-46
2022/07/06 02:28:28;;;;;;;4.38;3.20;;;;;;;15.46;100.00;96802.97;5074451;28;20091;-48
2022/07/06 02:30:57;;;;;;;4.00;3.20;;;;;;;15.43;100.00;96809.44;5072751;28;20068;-48
2022/07/06 02:33:25;;;;;;;4.97;3.28;;;;;;;15.34;100.00;96816.56;5078962;28;20501;-48
2022/07/06 02:35:54;;;;;;;6.35;3.50;;;;;;;15.37;100.00;96808.28;5077487;28;20076;-46
2022/07/06 02:38:22;;;;;;;3.80;3.40;;;;;;;15.50;100.00;96809.63;5086487;28;20479;-43
2022/07/06 02:40:51;;;;;;;6.00;3.33;;;;;;;15.48;100.00;96806.28;5078431;28;20084;-47
2022/07/06 02:43:20;;;;;;;3.53;3.13;;;;;;;15.46;100.00;96814.44;5075638;28;20076;-45
2022/07/06 02:45:50;;;;;;;4.25;3.30;;;;;;;15.51;100.00;96814.75;5076445;28;20521;-45
2022/07/06 02:48:21;;;;;;;4.80;3.35;;;;;;;15.39;100.00;96821.41;5077958;28;20127;-47
2022/07/06 02:50:49;;;;;;;3.75;3.28;;;;;;;15.50;100.00;96818.41;5080206;28;20060;-48
2022/07/06 02:53:18;;;;;;;5.10;3.33;;;;;;;15.53;100.00;96814.59;5076492;28;20480;-50
2022/07/06 02:55:47;;;;;;;4.53;3.03;;;;;;;15.46;100.00;96816.25;5082837;28;20074;-45
2022/07/06 02:58:15;;;;;;;5.32;3.20;;;;;;;15.50;100.00;96813.09;5077344;28;20068;-48
2022/07/06 03:00:43;;;;;;;4.05;3.28;;;;;;;15.50;100.00;96821.06;5074272;28;20087;-46
2022/07/06 03:03:13;;;;;;;3.30;2.95;;;;;;;15.51;100.00;96821.91;5077957;28;20079;-50
2022/07/06 03:05:42;;;;;;;3.47;3.17;;;;;;;15.52;100.00;96821.75;5077639;28;20082;-45
2022/07/06 03:08:10;;;;;;;4.57;3.58;;;;;;;15.44;100.00;96827.03;5080171;28;20068;-52
2022/07/06 03:10:38;;;;;;;3.97;3.33;;;;;;;15.44;100.00;96835.84;5086496;28;20086;-51
2022/07/06 03:13:07;;;;;;;4.15;3.25;;;;;;;15.40;100.00;96837.19;5076991;28;20064;-50
2022/07/06 03:15:35;;;;;;;9.07;3.38;;;;;;;15.32;100.00;96847.81;5079757;28;20074;-48
2022/07/06 03:18:04;;;;;;;5.18;3.20;;;;;;;15.33;100.00;96846.81;5102771;27;20071;-55
2022/07/06 03:20:34;;;;;;;6.40;3.47;;;;;;;15.32;100.00;96847.00;5086326;28;20060;-52
2022/07/06 03:23:02;;;;;;;5.82;3.30;;;;;;;15.25;100.00;96844.16;5082697;28;20078;-45
2022/07/06 03:25:32;;;;;;;5.93;3.10;;;;;;;15.26;100.00;96844.97;5081106;28;20494;-46
2022/07/06 03:28:00;;;;;;;6.80;3.42;;;;;;;15.24;100.00;96844.31;5082238;28;20063;-49
2022/07/06 03:30:29;;;;;;;5.05;3.20;;;;;;;15.28;100.00;96848.28;5078478;28;20064;-46
2022/07/06 03:32:57;;;;;;;6.13;3.50;;;;;;;15.20;100.00;96863.22;5079485;28;20032;-47
2022/07/06 03:35:26;;;;;;;4.65;3.03;;;;;;;15.32;100.00;96855.78;5074714;28;20055;-50
2022/07/06 03:37:56;;;;;;;7.05;3.53;;;;;;;15.37;100.00;96850.78;5075087;28;20068;-49
2022/07/06 03:40:24;;;;;;;5.18;3.47;;;;;;;15.31;100.00;96832.00;5078032;28;20087;-48
2022/07/06 03:42:53;;;;;;;5.13;3.17;;;;;;;15.30;100.00;96825.06;5075190;28;20537;-46
2022/07/06 03:45:21;;;;;;;4.60;3.05;;;;;;;15.35;100.00;96830.72;5075700;28;20064;-46
2022/07/06 03:47:49;;;;;;;5.28;3.53;;;;;;;15.28;100.00;96829.69;5076538;28;20052;-47
2022/07/06 03:50:18;;;;;;;4.40;3.28;;;;;;;15.32;100.00;96829.22;5077687;28;20096;-47
2022/07/06 03:52:46;;;;;;;5.43;3.40;;;;;;;15.83;100.00;96821.09;5078347;28;20076;-48
2022/07/06 03:55:16;;;;;;;5.82;3.65;;;;;;;16.33;100.00;96811.97;5086513;28;20086;-49
2022/07/06 03:57:44;;;;;;;7.35;3.90;;;;;;;16.93;100.00;96799.88;5088744;28;20475;-46
2022/07/06 04:00:14;;;;;;;5.03;3.80;;;;;;;17.44;100.00;96802.84;5088718;28;20293;-44
2022/07/06 04:02:42;;;;;;;4.82;3.58;;;;;;;18.09;100.00;96796.94;5090109;28;20078;-45
2022/07/06 04:05:11;;;;;;;6.05;3.60;;;;;;;18.81;100.00;96795.44;5090735;28;20066;-45
2022/07/06 04:07:39;;;;;;;4.03;3.50;;;;;;;18.96;100.00;96794.41;5090555;28;20079;-47
2022/07/06 04:10:09;;;;;;;3.95;3.55;;;;;;;19.59;100.00;96791.91;5090308;28;20074;-50
2022/07/06 04:12:42;;;;;;;3.97;3.50;;;;;;;19.58;100.00;96798.28;5087720;28;20071;-47
2022/07/06 04:15:11;;;;;;;3.83;3.42;;;;;;;19.97;100.00;96799.63;5086518;28;20079;-45
2022/07/06 04:17:55;;;;;;;5.60;3.45;;;;;;;20.66;100.00;96804.19;5083653;28;20075;-45
2022/07/06 04:20:25;;;;;;;5.22;3.47;;;;;;;20.76;100.00;96810.00;5095742;28;20569;-50
2022/07/06 04:22:53;;;;;;;3.92;3.50;;;;;;;20.76;100.00;96810.00;5088736;28;20083;-47
2022/07/06 04:25:22;;;;;;;3.70;3.40;;;;;;;20.97;100.00;96808.22;5090298;28;20076;-48
2022/07/06 04:27:51;;;;;;;3.80;3.45;;;;;;;20.15;100.00;96807.97;5085791;28;20078;-47
2022/07/06 04:30:20;;;;;;;4.95;3.70;;;;;;;20.83;100.00;96808.16;5090163;28;20110;-46
2022/07/06 04:32:48;;;;;;;3.70;3.38;;;;;;;20.51;100.00;96816.88;5089790;28;20075;-45
2022/07/06 04:35:17;;;;;;;6.43;3.80;;;;;;;20.43;100.00;96814.31;5090161;28;20048;-42
2022/07/06 04:37:46;;;;;;;3.58;3.30;;;;;;;20.13;100.00;96809.19;5089440;28;20039;-51
2022/07/06 04:40:15;;;;;;;5.40;3.53;;;;;;;20.54;100.00;96816.47;5089550;28;20557;-45
2022/07/06 04:42:46;;;;;;;5.68;3.92;;;;;;;20.72;100.00;96805.25;5089756;28;20483;-45
2022/07/06 04:45:16;;;;;;;5.03;3.60;;;;;;;20.65;100.00;96807.03;5089855;28;20063;-49
2022/07/06 04:47:45;;;;;;;4.90;3.28;;;;;;;20.18;100.00;96811.31;5089196;28;20068;-45
2022/07/06 04:50:13;;;;;;;3.67;3.30;;;;;;;21.15;100.00;96815.69;5089177;28;20059;-45
2022/07/06 04:52:42;;;;;;;3.47;3.17;;;;;;;20.71;100.00;96808.94;5090012;28;20125;-49
2022/07/06 04:55:10;;;;;;;4.30;3.50;;;;;;;20.58;100.00;96818.56;5068726;28;20315;-50
2022/07/06 04:57:38;;;;;;;3.35;3.05;;;;;;;20.33;100.00;96814.69;5068356;28;20061;-45
2022/07/06 05:00:08;;;;;;;3.90;3.10;;;;;;;21.23;100.00;96816.34;5069217;28;20084;-46
2022/07/06 05:02:38;;;;;;;3.10;2.80;;;;;;;20.62;100.00;96816.31;5069125;28;20067;-50
2022/07/06 05:05:09;;;;;;;3.00;2.70;;;;;;;20.98;100.00;96815.22;5069149;28;20063;-46
2022/07/06 05:07:39;;;;;;;4.90;3.00;;;;;;;21.33;100.00;96814.09;5069183;28;20549;-48
2022/07/06 05:10:09;;;;;;;5.55;3.13;;;;;;;21.35;100.00;96815.75;5083703;28;20068;-45
2022/07/06 05:12:38;;;;;;;2.95;2.60;;;;;;;21.39;100.00;96812.47;5089035;28;20095;-46
2022/07/06 05:15:08;;;;;;;5.03;2.67;;;;;;;20.88;100.00;96812.09;5085104;28;20108;-47
2022/07/06 05:17:38;;;;;;;3.55;2.83;;;;;;;20.50;100.00;96818.72;5093259;28;20078;-51
2022/07/06 05:20:07;;;;;;;2.78;2.58;;;;;;;20.89;100.00;96814.59;5083061;28;20056;-44
2022/07/06 05:22:36;;;;;;;3.90;2.72;;;;;;;20.52;100.00;96813.19;5084426;28;20067;-47
2022/07/06 05:25:12;;;;;;;4.15;2.88;;;;;;;21.08;100.00;96818.34;5063981;28;20466;-47
2022/07/06 05:27:41;;;;;;;3.72;2.60;;;;;;;21.37;100.00;96814.53;5084946;28;20052;-50
2022/07/06 05:30:10;;;;;;;3.28;2.50;;;;;;;20.92;100.00;96821.38;5092915;28;20098;-46
2022/07/06 05:32:40;;;;;;;2.80;2.60;;;;;;;20.56;100.00;96825.16;5088834;28;20082;-50
2022/07/06 05:35:09;;;;;;;3.45;2.22;;;;;;;20.81;100.00;96814.75;5084888;28;20469;-49
2022/07/06 05:37:57;;;;;;;3.05;2.40;;;;;;;20.81;100.00;96825.47;5087004;28;20111;-51
2022/07/06 05:40:25;;;;;;;5.53;2.88;;;;;;;20.66;100.00;96828.28;5089909;28;20087;-46
2022/07/06 05:42:54;;;;;;;2.80;2.60;;;;;;;20.65;100.00;96828.47;5089967;28;20051;-50
2022/07/06 05:45:23;;;;;;;2.90;2.50;;;;;;;20.68;100.00;96836.97;5085041;28;20064;-50
2022/07/06 05:50:38;;;;;;;3.72;2.40;;;;;;;20.70;100.00;96834.09;5085230;28;20471;-45
2022/07/06 05:53:07;;;;;;;4.60;2.78;;;;;;;20.61;100.00;96836.94;5089594;28;20469;-45
2022/07/06 05:55:44;;;;;;;3.30;2.78;;;;;;;20.67;100.00;96846.03;5088081;28;20603;-45
2022/07/06 05:58:13;;;;;;;2.70;2.40;;;;;;;20.53;100.00;96842.44;5068565;28;20064;-47
2022/07/06 06:00:41;;;;;;;5.18;3.30;;;;;;;20.67;100.00;96842.53;5085438;28;20064;-45
2022/07/06 06:03:11;;;;;;;3.53;2.45;;;;;;;20.53;100.00;96847.81;5088460;28;20068;-49
2022/07/06 06:05:39;;;;;;;3.38;2.10;;;;;;;20.64;100.00;96854.44;5086706;28;20074;-52
2022/07/06 06:08:08;;;;;;;2.42;2.20;;;;;;;20.66;100.00;96849.72;5088178;28;20060;-52
2022/07/06 06:10:36;;;;;;;5.72;2.53;;;;;;;20.49;100.00;96851.06;5088983;28;20572;-48
2022/07/06 06:13:04;;;;;;;3.22;2.55;;;;;;;20.56;100.00;96855.44;5088355;28;20059;-51
2022/07/06 06:15:33;;;;;;;4.00;2.35;;;;;;;20.81;100.00;96860.31;5091504;28;20075;-46
2022/07/06 06:18:03;;;;;;;6.43;2.47;;;;;;;20.66;100.00;96862.31;5087776;28;20432;-46
2022/07/06 06:20:33;;;;;;;5.53;2.38;;;;;;;20.57;100.00;96861.63;5088143;28;20078;-46
2022/07/06 06:23:04;;;;;;;3.72;2.78;;;;;;;20.41;100.00;96868.13;5088186;28;20075;-47
2022/07/06 06:25:33;;;;;;;;;;;;;;;20.58;100.00;96858.78;5089442;28;20632;-45
2022/07/06 06:28:01;;;;;;;3.15;2.60;;;;;;;20.58;100.00;96861.44;5087902;28;20350;-47
2022/07/06 06:30:30;;;;;;;3.47;2.60;;;;;;;20.76;100.00;96860.91;5087402;28;20545;-46
2022/07/06 06:33:09;;;;;;;5.30;2.78;;;;;;;20.89;100.00;96856.63;5088353;28;20072;-48
2022/07/06 06:35:39;;;;;;;3.97;2.95;;;;;;;20.58;100.00;96869.50;5082124;28;20514;-52
2022/07/06 06:38:07;;;;;;;8.02;3.00;;;;;;;20.81;100.00;96863.81;5087888;28;20067;-50
2022/07/06 06:40:36;;;;;;;4.35;2.90;;;;;;;21.13;100.00;96866.84;5087634;28;20078;-44
2022/07/06 06:43:05;;;;;;;7.88;2.70;;;;;;;20.81;100.00;96860.31;5092102;28;20070;-49
2022/07/06 06:45:33;;;;;;;3.05;2.60;;;;;;;21.15;100.00;96853.22;5091718;28;20067;-50
2022/07/06 06:48:01;;;;;;;3.75;2.83;;;;;;;21.35;100.00;96862.19;5085662;28;20063;-46
2022/07/06 06:50:30;;;;;;;7.32;2.80;;;;;;;21.46;100.00;96850.84;5091750;28;20071;-53
2022/07/06 06:53:00;;;;;;;3.92;2.95;;;;;;;21.40;100.00;96850.84;5091755;28;20177;-54
2022/07/06 06:55:28;;;;;;;3.45;3.10;;;;;;;21.18;100.00;96847.47;5091716;28;20087;-51
2022/07/06 06:57:56;;;;;;;4.45;2.97;;;;;;;21.37;100.00;96843.19;5091759;28;20076;-53
2022/07/06 07:00:25;;;;;;;3.72;2.70;;;;;;;21.47;100.00;96854.38;5090865;28;20068;-54
2022/07/06 07:02:53;;;;;;;4.38;2.78;;;;;;;21.32;100.00;96855.34;5086805;28;20079;-46
2022/07/06 07:05:22;;;;;;;6.15;3.30;;;;;;;21.50;100.00;96848.59;5091629;28;20060;-49
2022/07/06 07:07:50;;;;;;;4.30;3.03;;;;;;;21.87;100.00;96844.50;5090410;28;20071;-48
2022/07/06 07:10:21;;;;;;;5.13;2.83;;;;;;;21.36;100.00;96852.28;5096996;28;20079;-51
2022/07/06 07:12:49;;;;;;;5.38;2.78;;;;;;;21.83;100.00;96847.81;5094953;28;20071;-50
2022/07/06 07:15:17;;;;;;;5.20;3.13;;;;;;;21.88;100.00;96848.84;5087268;28;20068;-52
2022/07/06 07:17:46;;;;;;;4.38;3.13;;;;;;;21.60;100.00;96845.53;5091399;28;20117;-48
2022/07/06 07:20:14;;;;;;;5.68;2.90;;;;;;;21.88;100.00;96853.38;5090489;28;20067;-46
2022/07/06 07:22:43;;;;;;;5.68;3.35;;;;;;;22.30;100.00;96854.00;5091811;28;20087;-51
2022/07/06 07:25:11;;;;;;;3.63;3.00;;;;;;;22.34;100.00;96852.56;5086714;28;20471;-51
2022/07/06 07:27:42;;;;;;;3.78;2.88;;;;;;;22.43;100.00;96848.59;5090920;28;20063;-51
2022/07/06 07:30:11;;;;;;;3.58;2.88;;;;;;;22.55;100.00;96848.81;5087363;28;20063;-50
2022/07/06 07:32:40;;;;;;;4.30;3.40;;;;;;;22.37;100.00;96852.16;5091124;28;20464;-51
2022/07/06 07:35:09;;;;;;;4.82;3.20;;;;;;;22.15;100.00;96855.06;5090327;28;20075;-53
2022/07/06 07:37:37;;;;;;;5.20;3.08;;;;;;;22.41;100.00;96851.53;5091535;28;20087;-45
2022/07/06 07:40:07;;;;;;;3.80;2.95;;;;;;;22.89;100.00;96850.34;5090450;28;20071;-50
2022/07/06 07:42:35;;;;;;;3.88;2.85;;;;;;;22.85;100.00;96849.97;5091049;28;20462;-48
2022/07/06 07:45:06;;;;;;;3.70;2.97;;;;;;;22.81;100.00;96851.41;5090436;28;20063;-50
2022/07/06 07:47:34;;;;;;;5.68;2.90;;;;;;;23.17;100.00;96858.94;5090668;28;20079;-48
2022/07/06 07:50:02;;;;;;;4.25;3.03;;;;;;;23.29;100.00;96859.09;5090312;28;20080;-47
2022/07/06 07:52:31;;;;;;;4.43;3.03;;;;;;;23.43;100.00;96859.84;5090655;28;20087;-44
2022/07/06 07:54:59;;;;;;;5.13;3.08;;;;;;;23.84;100.00;96851.31;5090760;28;20064;-49
2022/07/06 07:57:48;;;;;;;3.35;3.05;;;;;;;23.45;100.00;96858.59;5088923;28;20071;-47
2022/07/06 08:00:18;;;;;;;4.60;3.20;;;;;;;24.10;100.00;96849.44;5091082;28;20550;-43
2022/07/06 08:02:54;;;;;;;4.25;3.40;;;;;;;23.46;100.00;96859.41;5091351;28;20078;-48
2022/07/06 08:05:23;;;;;;;4.75;3.20;;;;;;;24.56;100.00;96851.72;5096576;28;20063;-46
2022/07/06 08:07:51;;;;;;;7.50;3.47;;;;;;;24.33;100.00;96857.75;5092851;28;20090;-45
2022/07/06 08:10:20;;;;;;;4.97;3.50;;;;;;;24.09;100.00;96855.91;5090594;28;20529;-44
2022/07/06 08:12:49;;;;;;;4.10;3.25;;;;;;;24.23;100.00;96854.72;5090431;28;20072;-44
2022/07/06 08:15:19;;;;;;;4.22;3.20;;;;;;;24.43;100.00;96853.72;5090534;28;20177;-46
2022/07/06 08:17:47;;;;;;;5.45;3.33;;;;;;;24.28;100.00;96849.47;5090869;28;20438;-47
2022/07/06 08:20:16;;;;;;;5.38;2.97;;;;;;;24.72;100.00;96854.88;5090331;28;20066;-45
2022/07/06 08:22:44;;;;;;;5.25;3.45;;;;;;;24.08;100.00;96849.66;5090115;28;20091;-45
2022/07/06 08:25:16;;;;;;;3.75;3.00;;;;;;;24.48;100.00;96856.59;5090888;28;20079;-47
2022/07/06 08:27:45;;;;;;;6.35;3.25;;;;;;;24.56;100.00;96865.19;5089945;28;20079;-50
2022/07/06 08:30:13;;;;;;;3.50;3.20;;;;;;;24.48;100.00;96856.59;5089781;28;20056;-48
2022/07/06 08:32:44;;;;;;;4.07;3.08;;;;;;;24.68;100.00;96851.81;5090487;28;20064;-45
2022/07/06 08:35:32;;;;;;;5.07;3.10;;;;;;;24.70;100.00;96857.78;5089651;28;20137;-47
2022/07/06 08:38:01;;;;;;;6.05;3.00;;;;;;;24.77;100.00;96850.44;5089981;28;20080;-45
2022/07/06 08:40:33;;;;;;;4.18;3.17;;;;;;;24.42;100.00;96854.78;5089687;28;20082;-48
2022/07/06 08:43:02;;;;;;;4.75;3.13;;;;;;;24.97;100.00;96857.50;5089659;28;20075;-44
2022/07/06 08:45:30;;;;;;;5.72;3.20;;;;;;;24.87;100.00;96860.72;5089360;28;20459;-51
2022/07/06 08:48:04;;;;;;;7.95;3.22;;;;;;;25.31;91.16;96853.34;5089583;28;20072;-46
2022/07/06 08:50:34;;;;;;;3.83;3.05;;;;;;;25.09;79.89;96858.41;5089712;28;20068;-47
2022/07/06 08:53:03;;;;;;;4.63;3.20;;;;;;;24.91;100.00;96855.69;5088577;28;20091;-47
2022/07/06 08:55:31;;;;;;;5.70;3.10;;;;;;;25.21;100.00;96853.91;5086879;28;20458;-45
2022/07/06 08:58:00;;;;;;;6.90;3.00;;;;;;;25.11;91.11;96859.00;5089441;28;20067;-49
2022/07/06 09:00:29;;;;;;;4.57;3.03;;;;;;;25.80;78.86;96862.22;5088331;28;20108;-50
2022/07/06 09:02:58;;;;;;;4.97;3.40;;;;;;;25.34;96.82;96864.53;5093140;27;20059;-49
2022/07/06 09:05:29;;;;;;;5.00;3.00;;;;;;;25.34;90.22;96864.53;5088989;28;20055;-43
2022/07/06 09:07:58;;;;;;;7.50;3.30;;;;;;;24.74;94.84;96856.31;5089078;28;20106;-46
2022/07/06 09:10:28;;;;;;;4.13;3.10;;;;;;;25.02;82.19;96855.78;5089203;28;20075;-48
2022/07/06 09:13:04;;;;;;;6.10;3.35;;;;;;;25.73;90.61;96856.06;5088528;28;20075;-46
2022/07/06 09:15:33;;;;;;;6.93;3.40;;;;;;;25.55;95.32;96867.78;5089303;28;20071;-46
2022/07/06 09:18:02;;;;;;;5.38;3.35;;;;;;;25.45;82.55;96857.53;5088957;28;20072;-45
2022/07/06 09:20:32;;;;;;;5.25;3.33;;;;;;;25.36;73.65;96869.69;5088927;28;20071;-50
2022/07/06 09:23:01;;;;;;;7.10;3.17;;;;;;;25.62;94.22;96875.78;5082061;28;20072;-50
2022/07/06 09:25:30;;;;;;;6.65;3.20;;;;;;;25.51;87.12;96866.59;5086116;28;20071;-50
2022/07/06 09:27:59;;;;;;;8.13;3.42;;;;;;;25.37;84.21;96865.13;5089124;28;20071;-48
2022/07/06 09:30:28;;;;;;;4.57;3.40;;;;;;;25.25;75.72;96863.19;5089270;28;20506;-47
2022/07/06 09:32:58;;;;;;;7.07;3.38;;;;;;;25.71;78.83;96867.13;5089437;28;20068;-51
2022/07/06 09:35:28;;;;;;;4.15;2.72;;;;;;;25.74;80.88;96861.25;5087395;28;20068;-52
2022/07/06 09:38:03;;;;;;;3.38;2.85;;;;;;;25.75;68.57;96862.91;5088697;28;20090;-48
2022/07/06 09:40:33;;;;;;;3.45;2.88;;;;;;;26.43;69.50;96864.31;5089179;28;20072;-49
2022/07/06 09:43:16;;;;;;;3.90;2.80;;;;;;;26.52;74.94;96862.09;5088880;28;20067;-49
2022/07/06 09:45:45;;;;;;;3.30;3.00;;;;;;;26.88;66.95;96858.31;5088650;28;20078;-45
2022/07/06 09:48:18;;;;;;;8.40;3.30;;;;;;;26.74;77.74;96873.16;5088547;28;20074;-50
2022/07/06 09:50:50;;;;;;;5.55;3.10;;;;;;;25.74;86.25;96869.38;5087307;28;20060;-47
2022/07/06 09:53:21;;;;;;;4.70;2.72;;;;;;;25.72;93.45;96879.56;5089003;28;20059;-51
2022/07/06 09:55:51;;;;;;;3.75;3.17;;;;;;;25.59;99.08;96868.97;5088644;28;20641;-51
2022/07/06 09:58:21;;;;;;;6.28;3.05;;;;;;;25.14;80.86;96876.63;5085130;28;20090;-52
2022/07/06 10:01:10;;;;;;;9.10;2.90;;;;;;;25.69;83.45;96863.00;5084879;28;20445;-47
2022/07/06 10:03:39;;;;;;;5.43;3.40;;;;;;;25.45;84.51;96871.03;5088517;28;20068;-53
2022/07/06 10:06:26;;;;;;;5.50;2.83;;;;;;;25.94;77.42;96860.16;5088695;28;20816;-48
2022/07/06 10:08:56;;;;;;;4.10;2.67;;;;;;;25.25;94.07;96857.78;5088509;28;20072;-51
2022/07/06 10:11:25;;;;;;;4.45;2.78;;;;;;;25.22;81.78;96862.81;5088535;28;20060;-51
2022/07/06 10:13:55;;;;;;;5.13;3.00;;;;;;;25.12;74.56;96854.44;5082650;28;20088;-49
2022/07/06 10:16:25;;;;;;;4.18;2.97;;;;;;;25.61;72.67;96861.47;5087578;28;20475;-51
2022/07/06 10:18:54;;;;;;;5.43;2.97;;;;;;;25.76;74.92;96866.44;5086416;28;20068;-49
2022/07/06 10:21:23;;;;;;;3.42;3.00;;;;;;;25.29;89.80;96866.25;5092449;28;20064;-50
2022/07/06 10:23:52;;;;;;;4.15;2.90;;;;;;;25.31;86.48;96856.88;5091018;28;20526;-52
2022/07/06 10:26:23;;;;;;;5.22;3.00;;;;;;;25.75;95.10;96859.38;5092217;28;20060;-53
2022/07/06 10:28:53;;;;;;;7.78;3.35;;;;;;;26.20;63.58;96854.31;5092149;28;20074;-51
2022/07/06 10:31:21;;;;;;;6.03;2.97;;;;;;;26.22;64.75;96856.75;5092644;28;20076;-49
2022/07/06 10:33:50;;;;;;;4.88;2.60;;;;;;;25.34;84.57;96861.00;5087723;28;20075;-49
2022/07/06 10:36:19;;;;;;;5.50;2.80;;;;;;;24.87;96.09;96866.13;5092180;28;20063;-53
2022/07/06 10:38:50;;;;;;;4.07;2.65;;;;;;;25.53;87.60;96859.91;5091681;28;20064;-50
2022/07/06 10:41:19;;;;;;;3.83;3.00;;;;;;;25.89;98.37;96865.44;5092112;28;20056;-50
2022/07/06 10:43:49;;;;;;;3.72;2.95;;;;;;;25.96;80.65;96856.16;5092205;28;20130;-49
2022/07/06 10:46:20;;;;;;;4.13;3.13;;;;;;;26.18;75.02;96861.81;5088201;28;20087;-46
2022/07/06 10:48:49;;;;;;;6.70;3.80;;;;;;;26.43;60.14;96853.50;5092119;28;20068;-55
2022/07/06 10:51:24;;;;;;;2.97;2.67;;;;;;;26.51;64.15;96847.75;5091874;28;20066;-46
2022/07/06 10:53:57;;;;;;;3.75;2.40;;;;;;;26.53;59.22;96847.50;5092322;28;20048;-49
2022/07/06 10:56:33;;;;;;;4.60;2.65;;;;;;;25.55;55.96;96843.47;5097658;28;20453;-46
2022/07/06 10:59:11;;;;;;;5.80;2.40;;;;;;;25.66;60.51;96853.47;5085841;28;20070;-47
2022/07/06 11:01:40;;;;;;;4.35;2.67;;;;;;;25.90;67.22;96843.56;5089267;28;20087;-51
2022/07/06 11:04:16;;;;;;;2.63;2.30;;;;;;;26.37;64.15;96842.81;5071301;28;20440;-47
2022/07/06 11:06:46;;;;;;;4.70;2.30;;;;;;;26.84;70.80;96835.50;5071451;28;20079;-45
2022/07/06 11:09:15;;;;;;;4.03;2.58;;;;;;;27.19;66.77;96840.00;5071509;28;20075;-48
2022/07/06 11:11:47;;;;;;;4.68;2.72;;;;;;;27.28;60.16;96840.44;5070894;28;20459;-50
2022/07/06 11:14:17;;;;;;;4.68;2.63;;;;;;;27.39;66.49;96844.97;5070986;28;20445;-49
2022/07/06 11:17:02;;;;;;;4.35;2.30;;;;;;;27.68;65.26;96852.03;5071053;28;20687;-46
2022/07/06 11:19:31;;;;;;;3.15;2.33;;;;;;;26.63;65.84;96855.84;5071457;28;20470;-49
2022/07/06 11:22:06;;;;;;;5.05;2.45;;;;;;;27.31;61.41;96834.53;5070930;28;20075;-52
2022/07/06 11:24:36;;;;;;;4.50;2.58;;;;;;;27.45;67.83;96836.69;5069370;28;20068;-46
2022/07/06 11:27:08;;;;;;;2.70;2.40;;;;;;;26.80;62.20;96850.53;5070276;28;20063;-50
2022/07/06 11:29:39;;;;;;;2.22;1.90;;;;;;;27.05;57.15;96847.56;5066664;28;20119;-50
2022/07/06 11:32:10;;;;;;;4.57;1.90;;;;;;;27.17;50.17;96851.06;5077463;28;20064;-49
2022/07/06 11:34:40;;;;;;;5.15;2.13;;;;;;;27.01;61.27;96848.25;5071675;28;20087;-50
2022/07/06 11:37:09;;;;;;;;;;;;;;;26.46;55.67;96841.38;5069491;28;20196;-49
2022/07/06 11:39:40;;;;;;;4.72;2.10;;;;;;;26.74;58.10;96841.50;5070828;28;19986;-50
2022/07/06 11:42:09;;;;;;;2.58;2.00;;;;;;;26.79;59.11;96837.25;5069951;28;20548;-50